Fort Shafter, Hawaii
Current Conditions -  °F | °C
As of 9:53 PM on Sunday 25 Jan 2015 (Local Time) from PHNL Reporting Station
Few Clouds Few Clouds  
Wind Chill: 70°   Ceiling: Unl
Heat Index: 70°   Visibility: 10mi
Dew Point: 61°   Wind: 13mph
Humidity: 73%   Direction: 20°NNE
Pressure: 30.02"   Gusts: 17mph
Location:  21.35°N, 157.87°W
Report Text: PHNL 260753Z 02011G15KT 10SM FEW032 21/16 A3002 RMK AO2 SLP166 T02110161
Loading
Personal Weather Stations






























Interactive Weather Map New forecast layout! Learn more

10-Day Weather Forecast

Advertisements
Track Severe Weather on mobile